Time;durP1;ratioP1;P1;durP2;ratioP2;P2;SDS_P1;SDS_P2;PMS_P1;PMS_P2;Temp;Humidity;BMP_temperature;BMP_pressure;BME280_temperature;BME280_humidity;BME280_pressure;Samples;Min_cycle;Max_cycle;Signal;HPM_P1;HPM_P2
2022/03/12 00:01:18;;;;;;;35.75;13.57;;;;;;;;;;5117792;28;20035;-81
2022/03/12 00:03:43;;;;;;;44.83;17.15;;;;;;;;;;5082771;28;20028;-82
2022/03/12 00:06:09;;;;;;;45.33;17.17;;;;;;;;;;5082953;28;20027;-81
2022/03/12 00:08:44;;;;;;;49.10;17.35;;;;;;;;;;5117491;28;20024;-81
2022/03/12 00:11:11;;;;;;;49.45;17.65;;;;;;;;;;5085759;28;20364;-81
2022/03/12 00:13:36;;;;;;;46.22;18.08;;;;;;;;;;5102113;28;20096;-80
2022/03/12 00:16:02;;;;;;;45.22;18.05;;;;;;;;;;5090706;28;20357;-81
2022/03/12 00:18:30;;;;;;;45.05;16.27;;;;;;;;;;5099366;28;20059;-80
2022/03/12 00:20:56;;;;;;;49.53;18.98;;;;;;;;;;5099645;28;20033;-82
2022/03/12 00:23:22;;;;;;;51.88;17.55;;;;;;;;;;5082414;28;20016;-81
2022/03/12 00:25:48;;;;;;;49.50;16.50;;;;;;;;;;5099234;28;20043;-81
2022/03/12 00:28:16;;;;;;;49.40;17.55;;;;;;;;;;5098867;28;20438;-81
2022/03/12 00:30:47;;;;;;;48.17;17.48;;;;;;;;;;5099235;28;20114;-81
2022/03/12 00:33:13;;;;;;;47.83;17.48;;;;;;;;;;5099118;28;20027;-81
2022/03/12 00:35:38;;;;;;;51.97;18.42;;;;;;;;;;5088559;28;20091;-81
2022/03/12 00:38:04;;;;;;;48.50;17.98;;;;;;;;;;5085990;28;20122;-81
2022/03/12 00:40:30;;;;;;;54.88;20.25;;;;;;;;;;5099012;28;20348;-81
2022/03/12 00:42:56;;;;;;;55.25;20.23;;;;;;;;;;5082023;28;20034;-81
2022/03/12 00:45:22;;;;;;;50.50;19.35;;;;;;;;;;5098847;28;20039;-81
2022/03/12 00:47:49;;;;;;;74.10;25.90;;;;;;;;;;5098740;28;20475;-80
2022/03/12 00:50:15;;;;;;;69.65;23.45;;;;;;;;;;5082492;28;20433;-80
2022/03/12 00:52:41;;;;;;;60.22;23.00;;;;;;;;;;5098605;28;20024;-81
2022/03/12 00:55:06;;;;;;;71.05;22.90;;;;;;;;;;5065632;28;20039;-81
2022/03/12 00:57:32;;;;;;;65.13;23.50;;;;;;;;;;5111410;28;20028;-80
2022/03/12 00:59:57;;;;;;;63.45;21.90;;;;;;;;;;5117186;28;20023;-81
2022/03/12 01:02:23;;;;;;;62.00;20.95;;;;;;;;;;5098414;28;20035;-80
2022/03/12 01:04:50;;;;;;;68.00;24.25;;;;;;;;;;5098491;28;20510;-80
2022/03/12 01:07:15;;;;;;;83.93;27.95;;;;;;;;;;5098777;28;20396;-81
2022/03/12 01:09:41;;;;;;;64.15;23.48;;;;;;;;;;5098202;28;20023;-81
2022/03/12 01:12:07;;;;;;;75.13;23.88;;;;;;;;;;5116242;28;20114;-81
2022/03/12 01:14:33;;;;;;;68.68;22.15;;;;;;;;;;5116272;28;20043;-81
2022/03/12 01:16:58;;;;;;;62.72;22.48;;;;;;;;;;5065627;28;20069;-81
2022/03/12 01:19:24;;;;;;;68.85;23.02;;;;;;;;;;5092851;28;20062;-81
2022/03/12 01:21:50;;;;;;;85.60;29.60;;;;;;;;;;5098120;28;20049;-80
2022/03/12 01:24:16;;;;;;;91.45;32.38;;;;;;;;;;5081035;28;20103;-81
2022/03/12 01:26:41;;;;;;;85.20;30.67;;;;;;;;;;5116024;28;20360;-81
2022/03/12 01:29:07;;;;;;;72.00;25.38;;;;;;;;;;5097933;28;20032;-80
2022/03/12 01:31:36;;;;;;;69.75;24.58;;;;;;;;;;5064711;28;20028;-80
2022/03/12 01:34:03;;;;;;;62.53;22.40;;;;;;;;;;5081457;28;20028;-81
2022/03/12 01:36:28;;;;;;;60.03;22.08;;;;;;;;;;5098620;28;20433;-80
2022/03/12 01:38:55;;;;;;;67.35;23.23;;;;;;;;;;5129697;28;20047;-81
2022/03/12 01:41:22;;;;;;;64.38;22.90;;;;;;;;;;5091378;28;20036;-81
2022/03/12 01:43:48;;;;;;;61.42;21.70;;;;;;;;;;5115750;28;20129;-81
2022/03/12 01:46:13;;;;;;;60.83;22.27;;;;;;;;;;5097883;28;20076;-81
2022/03/12 01:48:47;;;;;;;73.88;27.05;;;;;;;;;;5096839;28;20035;-80
2022/03/12 01:51:13;;;;;;;76.45;23.70;;;;;;;;;;5097684;28;20519;-80
2022/03/12 01:53:38;;;;;;;79.57;27.45;;;;;;;;;;5097790;28;20103;-81
2022/03/12 01:56:04;;;;;;;74.95;24.85;;;;;;;;;;5080198;28;20364;-81
2022/03/12 01:58:30;;;;;;;75.70;28.20;;;;;;;;;;5097325;28;20066;-80
2022/03/12 02:00:57;;;;;;;86.50;28.95;;;;;;;;;;5108990;28;20016;-81
2022/03/12 02:03:26;;;;;;;70.22;26.13;;;;;;;;;;5080989;28;20066;-80
2022/03/12 02:05:52;;;;;;;77.25;26.88;;;;;;;;;;5080991;28;20063;-81
2022/03/12 02:08:18;;;;;;;83.53;27.75;;;;;;;;;;5063945;28;20067;-80
2022/03/12 02:10:45;;;;;;;76.68;26.35;;;;;;;;;;5080233;28;20032;-80
2022/03/12 02:13:11;;;;;;;81.28;24.88;;;;;;;;;;5080724;28;20108;-80
2022/03/12 02:15:36;;;;;;;88.20;28.88;;;;;;;;;;5115220;28;20028;-80
2022/03/12 02:18:02;;;;;;;78.13;24.95;;;;;;;;;;5115358;28;20434;-81
2022/03/12 02:20:28;;;;;;;85.80;27.17;;;;;;;;;;5116816;28;20032;-80
2022/03/12 02:22:54;;;;;;;81.32;27.27;;;;;;;;;;5125568;28;20050;-80
2022/03/12 02:25:30;;;;;;;88.65;29.38;;;;;;;;;;5079968;28;20027;-81
2022/03/12 02:27:56;;;;;;;84.55;29.25;;;;;;;;;;5096853;28;20368;-80
2022/03/12 02:30:37;;;;;;;86.10;28.60;;;;;;;;;;5079943;28;20093;-81
2022/03/12 02:33:03;;;;;;;84.57;28.48;;;;;;;;;;5097080;28;20031;-80
2022/03/12 02:35:33;;;;;;;91.63;30.08;;;;;;;;;;5079775;28;20035;-81
2022/03/12 02:37:59;;;;;;;98.85;32.50;;;;;;;;;;5097596;28;20027;-81
2022/03/12 02:40:24;;;;;;;108.18;33.30;;;;;;;;;;5096605;28;20428;-80
2022/03/12 02:42:51;;;;;;;103.15;34.85;;;;;;;;;;5107148;28;20062;-81
2022/03/12 02:45:16;;;;;;;106.25;35.70;;;;;;;;;;5082166;28;20096;-81
2022/03/12 02:47:43;;;;;;;105.28;35.58;;;;;;;;;;5096756;28;20051;-81
2022/03/12 02:50:10;;;;;;;109.35;35.78;;;;;;;;;;5122774;28;20076;-81
2022/03/12 02:52:39;;;;;;;119.85;41.72;;;;;;;;;;5108952;28;20035;-81
2022/03/12 02:55:05;;;;;;;123.32;41.08;;;;;;;;;;5097090;28;20038;-81
2022/03/12 02:57:31;;;;;;;118.05;39.65;;;;;;;;;;5096467;28;20652;-82
2022/03/12 03:00:06;;;;;;;117.22;40.00;;;;;;;;;;5097582;28;20027;-82
2022/03/12 03:02:38;;;;;;;99.07;33.58;;;;;;;;;;5101988;28;20436;-80
2022/03/12 03:05:36;;;;;;;113.25;38.05;;;;;;;;;;5126749;28;20443;-81
2022/03/12 03:08:06;;;;;;;119.63;38.55;;;;;;;;;;5100432;28;20042;-80
2022/03/12 03:10:40;;;;;;;127.28;43.35;;;;;;;;;;5100578;28;20023;-81
2022/03/12 03:13:18;;;;;;;125.07;39.47;;;;;;;;;;5118687;28;20063;-81
2022/03/12 03:15:54;;;;;;;105.53;34.60;;;;;;;;;;5100644;28;20035;-81
2022/03/12 03:18:22;;;;;;;91.60;30.17;;;;;;;;;;5118706;28;20051;-81
2022/03/12 03:20:48;;;;;;;122.15;38.35;;;;;;;;;;5102193;28;20028;-81
2022/03/12 03:23:13;;;;;;;91.55;31.90;;;;;;;;;;5083857;28;20038;-81
2022/03/12 03:25:39;;;;;;;92.43;31.65;;;;;;;;;;5077036;28;20015;-82
2022/03/12 03:28:08;;;;;;;95.90;31.48;;;;;;;;;;5066527;28;20466;-81
2022/03/12 03:30:37;;;;;;;91.22;32.05;;;;;;;;;;5084259;28;20020;-82
2022/03/12 03:33:05;;;;;;;95.75;31.25;;;;;;;;;;5083239;28;20084;-82
2022/03/12 03:35:31;;;;;;;87.72;28.98;;;;;;;;;;5118363;28;20020;-82
2022/03/12 03:37:57;;;;;;;80.85;25.23;;;;;;;;;;5118065;28;20023;-82
2022/03/12 03:40:26;;;;;;;85.50;27.33;;;;;;;;;;5100179;28;20350;-82
2022/03/12 03:42:52;;;;;;;82.97;28.50;;;;;;;;;;5083540;28;20023;-81
2022/03/12 03:45:21;;;;;;;79.70;26.65;;;;;;;;;;5122759;28;20025;-81
2022/03/12 03:47:47;;;;;;;83.28;31.65;;;;;;;;;;5126014;28;20024;-82
2022/03/12 03:50:13;;;;;;;81.68;26.52;;;;;;;;;;5082782;28;20184;-82
2022/03/12 03:52:38;;;;;;;84.47;26.70;;;;;;;;;;5099636;28;20469;-82
2022/03/12 03:55:05;;;;;;;73.43;26.05;;;;;;;;;;5117798;28;20024;-82
2022/03/12 03:57:30;;;;;;;70.25;24.83;;;;;;;;;;5099907;28;20385;-82
2022/03/12 03:59:56;;;;;;;79.43;26.48;;;;;;;;;;5099954;28;20031;-82
2022/03/12 04:02:21;;;;;;;78.50;26.42;;;;;;;;;;5117717;28;20338;-82
2022/03/12 04:04:48;;;;;;;79.95;26.40;;;;;;;;;;5100109;28;20032;-80
2022/03/12 04:07:14;;;;;;;80.60;25.27;;;;;;;;;;5126692;28;20027;-82
2022/03/12 04:09:40;;;;;;;67.45;24.10;;;;;;;;;;5069164;28;20352;-82
2022/03/12 04:12:06;;;;;;;68.57;24.25;;;;;;;;;;5082054;28;20396;-82
2022/03/12 04:14:32;;;;;;;57.92;20.58;;;;;;;;;;5099309;28;20050;-82
2022/03/12 04:16:58;;;;;;;69.15;24.42;;;;;;;;;;5082416;28;20106;-82
2022/03/12 04:19:29;;;;;;;71.07;25.58;;;;;;;;;;5099525;28;20027;-82
2022/03/12 04:21:56;;;;;;;75.60;26.38;;;;;;;;;;5082554;28;20083;-81
2022/03/12 04:24:23;;;;;;;69.43;24.23;;;;;;;;;;5117340;28;20046;-81
2022/03/12 04:26:50;;;;;;;75.00;24.38;;;;;;;;;;5082517;28;20465;-81
2022/03/12 04:29:17;;;;;;;63.28;23.60;;;;;;;;;;5084637;28;20381;-82
2022/03/12 04:31:43;;;;;;;62.38;21.80;;;;;;;;;;5099210;28;20460;-81
2022/03/12 04:34:08;;;;;;;59.85;20.20;;;;;;;;;;5117136;28;20027;-81
2022/03/12 04:36:37;;;;;;;64.97;23.38;;;;;;;;;;5081926;28;20067;-82
2022/03/12 04:39:04;;;;;;;58.20;21.77;;;;;;;;;;5117394;28;20031;-82
2022/03/12 04:41:33;;;;;;;50.40;18.10;;;;;;;;;;5082292;28;20028;-81
2022/03/12 04:43:59;;;;;;;61.42;17.95;;;;;;;;;;5099095;28;20092;-82
2022/03/12 04:46:25;;;;;;;50.13;16.42;;;;;;;;;;5084163;28;20027;-83
2022/03/12 04:48:50;;;;;;;58.10;19.85;;;;;;;;;;5101945;28;20040;-81
2022/03/12 04:51:19;;;;;;;45.88;17.30;;;;;;;;;;5098664;28;20027;-81
2022/03/12 04:53:46;;;;;;;42.13;14.13;;;;;;;;;;5082941;28;20070;-81
2022/03/12 04:56:11;;;;;;;45.00;14.45;;;;;;;;;;5104570;28;20100;-81
2022/03/12 04:58:37;;;;;;;42.00;14.20;;;;;;;;;;5094855;28;20512;-82
2022/03/12 05:01:03;;;;;;;46.33;15.02;;;;;;;;;;5127276;28;20020;-82
2022/03/12 05:03:28;;;;;;;31.50;12.35;;;;;;;;;;5106509;28;20419;-81
2022/03/12 05:05:54;;;;;;;36.38;13.68;;;;;;;;;;5106254;28;20069;-81
2022/03/12 05:08:20;;;;;;;48.97;16.30;;;;;;;;;;5129321;28;20067;-81
2022/03/12 05:10:50;;;;;;;45.72;16.05;;;;;;;;;;5099395;28;20494;-81
2022/03/12 05:13:19;;;;;;;40.00;14.75;;;;;;;;;;5098702;28;20438;-81
2022/03/12 05:15:45;;;;;;;43.90;15.20;;;;;;;;;;5098771;28;20106;-82
2022/03/12 05:18:11;;;;;;;44.38;16.15;;;;;;;;;;5098075;28;20027;-81
2022/03/12 05:20:38;;;;;;;38.88;14.48;;;;;;;;;;5098226;28;20023;-82
2022/03/12 05:23:06;;;;;;;39.20;14.57;;;;;;;;;;5115585;28;20023;-81
2022/03/12 05:25:32;;;;;;;44.53;16.00;;;;;;;;;;5097865;28;20028;-81
2022/03/12 05:27:58;;;;;;;43.28;16.40;;;;;;;;;;5117804;28;20043;-81
2022/03/12 05:30:23;;;;;;;40.90;14.00;;;;;;;;;;5108233;28;20026;-81
2022/03/12 05:32:49;;;;;;;50.53;17.25;;;;;;;;;;5097819;28;20023;-81
2022/03/12 05:35:19;;;;;;;46.50;16.58;;;;;;;;;;5115988;28;20657;-82
2022/03/12 05:37:46;;;;;;;46.92;14.88;;;;;;;;;;5098443;28;20082;-81
2022/03/12 05:40:12;;;;;;;48.85;16.50;;;;;;;;;;5097878;28;20036;-82
2022/03/12 05:42:38;;;;;;;64.05;18.65;;;;;;;;;;5080718;28;20173;-78
2022/03/12 05:45:06;;;;;;;64.30;20.23;;;;;;;;;;5115957;28;20081;-78
2022/03/12 05:47:36;;;;;;;60.08;19.65;;;;;;;;;;5097524;28;20114;-79
2022/03/12 05:50:03;;;;;;;36.58;13.77;;;;;;;;;;5085000;28;20039;-83
2022/03/12 05:52:28;;;;;;;44.50;13.73;;;;;;;;;;5091668;28;20103;-83
2022/03/12 05:54:54;;;;;;;50.42;15.73;;;;;;;;;;5080583;28;20106;-83
2022/03/12 05:57:19;;;;;;;63.63;19.75;;;;;;;;;;5080852;28;20031;-83
2022/03/12 05:59:45;;;;;;;53.47;16.25;;;;;;;;;;5080955;28;20036;-83
2022/03/12 06:02:11;;;;;;;55.97;17.52;;;;;;;;;;5084426;28;20046;-83
2022/03/12 06:04:36;;;;;;;67.15;21.70;;;;;;;;;;5080669;28;20053;-83
2022/03/12 06:07:02;;;;;;;125.70;38.60;;;;;;;;;;5115406;28;20118;-83
2022/03/12 06:09:27;;;;;;;45.75;15.30;;;;;;;;;;5080707;28;20369;-83
2022/03/12 06:11:53;;;;;;;63.22;18.02;;;;;;;;;;5067452;28;20342;-83
2022/03/12 06:14:20;;;;;;;56.13;17.95;;;;;;;;;;5099201;28;20047;-83
2022/03/12 06:16:48;;;;;;;58.42;19.38;;;;;;;;;;5097383;28;20134;-83
2022/03/12 06:19:19;;;;;;;50.92;17.73;;;;;;;;;;5081280;28;20026;-83
2022/03/12 06:21:45;;;;;;;37.63;13.05;;;;;;;;;;5097362;28;20016;-83
2022/03/12 06:24:10;;;;;;;36.88;13.52;;;;;;;;;;5097029;28;20085;-82
2022/03/12 06:26:36;;;;;;;45.42;15.57;;;;;;;;;;5079994;28;20020;-83
2022/03/12 06:29:09;;;;;;;66.05;18.85;;;;;;;;;;5080745;28;20027;-83
2022/03/12 06:31:34;;;;;;;43.38;16.45;;;;;;;;;;5065483;28;20031;-83
2022/03/12 06:34:01;;;;;;;140.25;52.97;;;;;;;;;;5087898;28;20027;-83
2022/03/12 06:36:27;;;;;;;87.35;31.67;;;;;;;;;;5096816;28;20123;-83
2022/03/12 06:38:52;;;;;;;50.65;17.23;;;;;;;;;;5096565;28;20470;-83
2022/03/12 06:41:19;;;;;;;44.15;16.33;;;;;;;;;;5096565;28;20099;-83
2022/03/12 06:43:45;;;;;;;57.67;21.33;;;;;;;;;;5096733;28;20391;-83
2022/03/12 06:46:14;;;;;;;52.05;18.40;;;;;;;;;;5114524;28;20041;-83
2022/03/12 06:48:40;;;;;;;54.97;19.48;;;;;;;;;;5096630;28;20036;-83
2022/03/12 06:51:06;;;;;;;49.08;17.63;;;;;;;;;;5114680;28;20076;-83
2022/03/12 06:53:31;;;;;;;39.08;15.93;;;;;;;;;;5097162;28;20038;-83
2022/03/12 06:55:58;;;;;;;42.50;15.85;;;;;;;;;;5107288;28;20008;-80
2022/03/12 06:58:29;;;;;;;41.17;13.90;;;;;;;;;;5115140;28;20447;-83
2022/03/12 07:00:55;;;;;;;34.28;12.68;;;;;;;;;;5096637;28;20097;-83
2022/03/12 07:03:21;;;;;;;36.63;14.75;;;;;;;;;;5079803;28;20023;-84
2022/03/12 07:05:47;;;;;;;37.20;14.38;;;;;;;;;;5114617;28;20024;-83
2022/03/12 07:08:13;;;;;;;41.58;15.32;;;;;;;;;;5079781;28;20031;-83
2022/03/12 07:10:38;;;;;;;51.95;16.35;;;;;;;;;;5079775;28;20437;-83
2022/03/12 07:13:03;;;;;;;87.95;28.63;;;;;;;;;;5096292;28;20080;-84
2022/03/12 07:15:30;;;;;;;92.00;29.08;;;;;;;;;;5079817;28;20423;-83
2022/03/12 07:17:56;;;;;;;58.80;20.70;;;;;;;;;;5093055;28;20036;-83
2022/03/12 07:20:21;;;;;;;57.05;15.93;;;;;;;;;;5115001;28;20028;-83
2022/03/12 07:22:47;;;;;;;37.65;14.02;;;;;;;;;;5079503;28;20035;-83
2022/03/12 07:25:13;;;;;;;32.28;13.02;;;;;;;;;;5115078;28;20084;-84
2022/03/12 07:27:39;;;;;;;35.10;14.30;;;;;;;;;;5096315;28;20084;-83
2022/03/12 07:30:05;;;;;;;180.38;36.42;;;;;;;;;;5079622;28;20436;-83
2022/03/12 07:32:31;;;;;;;55.33;15.90;;;;;;;;;;5096530;28;20030;-84
2022/03/12 07:34:57;;;;;;;68.43;18.92;;;;;;;;;;5079852;28;20035;-83
2022/03/12 07:37:22;;;;;;;67.63;18.88;;;;;;;;;;5079812;28;20204;-80
2022/03/12 07:39:48;;;;;;;44.17;15.02;;;;;;;;;;5088189;28;20432;-81
2022/03/12 07:42:13;;;;;;;53.67;15.70;;;;;;;;;;5096278;28;20422;-81
2022/03/12 07:44:39;;;;;;;49.63;19.90;;;;;;;;;;5062590;28;20028;-82
2022/03/12 07:47:05;;;;;;;33.13;12.93;;;;;;;;;;5080947;28;20059;-83
2022/03/12 07:49:31;;;;;;;35.50;13.98;;;;;;;;;;5100865;28;20023;-82
2022/03/12 07:51:56;;;;;;;51.10;17.95;;;;;;;;;;5100891;28;20028;-82
2022/03/12 07:54:23;;;;;;;41.17;14.90;;;;;;;;;;5119044;28;20024;-80
2022/03/12 07:56:48;;;;;;;35.13;13.77;;;;;;;;;;5083165;28;20031;-82
2022/03/12 07:59:14;;;;;;;39.75;15.77;;;;;;;;;;5083477;28;20032;-82
2022/03/12 08:01:39;;;;;;;45.05;17.80;;;;;;;;;;5109875;28;20412;-83
2022/03/12 08:04:06;;;;;;;51.60;17.75;;;;;;;;;;5083214;28;20028;-82
2022/03/12 08:06:33;;;;;;;52.63;19.38;;;;;;;;;;5099665;28;20028;-81
2022/03/12 08:08:58;;;;;;;58.33;23.20;;;;;;;;;;5101118;28;20027;-83
2022/03/12 08:11:25;;;;;;;60.28;24.27;;;;;;;;;;5100532;28;20099;-83
2022/03/12 08:13:54;;;;;;;54.80;22.25;;;;;;;;;;5084673;28;20047;-85
2022/03/12 08:16:19;;;;;;;73.25;27.00;;;;;;;;;;5083850;28;20116;-81
2022/03/12 08:18:45;;;;;;;55.42;21.08;;;;;;;;;;5082587;28;20051;-81
2022/03/12 08:21:11;;;;;;;42.80;19.67;;;;;;;;;;5119437;28;20024;-81
2022/03/12 08:23:37;;;;;;;48.50;19.17;;;;;;;;;;5097398;28;20119;-80
2022/03/12 08:26:02;;;;;;;43.33;18.67;;;;;;;;;;5083848;28;20052;-81
2022/03/12 08:28:28;;;;;;;43.97;18.15;;;;;;;;;;5098790;28;20035;-82
2022/03/12 08:30:54;;;;;;;50.95;21.80;;;;;;;;;;5113193;27;20023;-82
2022/03/12 08:33:20;;;;;;;47.22;19.35;;;;;;;;;;5097515;28;20028;-80
2022/03/12 08:35:47;;;;;;;49.42;25.17;;;;;;;;;;5097459;28;20024;-80
2022/03/12 08:38:12;;;;;;;44.60;20.23;;;;;;;;;;5079191;28;20402;-80
2022/03/12 08:40:38;;;;;;;43.33;21.25;;;;;;;;;;5078981;28;20079;-81
2022/03/12 08:43:03;;;;;;;40.50;20.60;;;;;;;;;;5097037;28;20028;-81
2022/03/12 08:45:30;;;;;;;36.63;19.27;;;;;;;;;;5091835;28;20028;-82
2022/03/12 08:47:55;;;;;;;40.42;20.10;;;;;;;;;;5067230;28;20047;-82
2022/03/12 08:50:21;;;;;;;35.33;19.83;;;;;;;;;;5099900;28;20028;-83
2022/03/12 08:52:47;;;;;;;40.40;19.10;;;;;;;;;;5117424;28;20429;-82
2022/03/12 08:55:12;;;;;;;36.58;20.27;;;;;;;;;;5070794;28;20028;-81
2022/03/12 08:57:38;;;;;;;33.35;19.17;;;;;;;;;;5096100;28;20035;-82
2022/03/12 09:00:05;;;;;;;38.90;19.23;;;;;;;;;;5078442;28;20024;-80
2022/03/12 09:02:33;;;;;;;35.83;19.23;;;;;;;;;;5078278;28;20070;-80
2022/03/12 09:04:59;;;;;;;34.25;20.02;;;;;;;;;;5078559;28;20024;-80
2022/03/12 09:07:25;;;;;;;45.38;23.92;;;;;;;;;;5112120;28;20038;-80
2022/03/12 09:09:53;;;;;;;38.92;20.40;;;;;;;;;;5073591;28;20032;-81
2022/03/12 09:12:18;;;;;;;33.33;19.33;;;;;;;;;;5079007;28;20039;-83
2022/03/12 09:14:44;;;;;;;38.40;21.65;;;;;;;;;;5061455;28;20036;-81
2022/03/12 09:17:09;;;;;;;50.45;24.63;;;;;;;;;;5078001;28;20032;-83
2022/03/12 09:19:35;;;;;;;56.03;26.38;;;;;;;;;;5077947;28;20032;-80
2022/03/12 09:22:02;;;;;;;50.55;26.25;;;;;;;;;;5096036;28;20127;-83
2022/03/12 09:24:28;;;;;;;35.15;19.80;;;;;;;;;;5077952;28;20028;-83
2022/03/12 09:26:53;;;;;;;39.70;18.85;;;;;;;;;;5078944;28;20038;-83
2022/03/12 09:29:19;;;;;;;47.30;22.48;;;;;;;;;;5116903;28;20122;-84
2022/03/12 09:31:44;;;;;;;79.60;28.77;;;;;;;;;;5097973;28;20452;-82
2022/03/12 09:34:10;;;;;;;68.68;24.73;;;;;;;;;;5116067;28;20147;-83
2022/03/12 09:36:36;;;;;;;51.15;23.33;;;;;;;;;;5097841;28;20445;-83
2022/03/12 09:39:06;;;;;;;44.67;20.45;;;;;;;;;;5097696;28;20039;-83
2022/03/12 09:41:34;;;;;;;43.75;17.52;;;;;;;;;;5081718;28;20050;-82
2022/03/12 09:44:01;;;;;;;46.05;19.63;;;;;;;;;;5081242;28;20122;-83
2022/03/12 09:46:26;;;;;;;39.22;19.65;;;;;;;;;;5116178;28;20027;-82
2022/03/12 09:48:52;;;;;;;38.15;17.27;;;;;;;;;;5087781;28;20388;-83
2022/03/12 09:51:18;;;;;;;46.30;22.35;;;;;;;;;;5102303;28;20051;-83
2022/03/12 09:53:43;;;;;;;48.60;22.88;;;;;;;;;;5097311;28;20089;-83
2022/03/12 09:56:09;;;;;;;48.88;21.90;;;;;;;;;;5097454;28;20164;-83
2022/03/12 09:58:34;;;;;;;41.22;17.67;;;;;;;;;;5115929;28;20141;-84
2022/03/12 10:01:00;;;;;;;46.47;20.48;;;;;;;;;;5096991;28;20107;-83
2022/03/12 10:03:26;;;;;;;40.95;16.38;;;;;;;;;;5114283;28;20472;-84
2022/03/12 10:05:51;;;;;;;38.20;16.58;;;;;;;;;;5079864;28;20487;-83
2022/03/12 10:08:17;;;;;;;34.10;16.15;;;;;;;;;;5096754;28;20036;-84
2022/03/12 10:10:44;;;;;;;36.60;17.35;;;;;;;;;;5106947;28;20055;-83
2022/03/12 10:13:10;;;;;;;39.28;17.20;;;;;;;;;;5080757;28;20108;-83
2022/03/12 10:15:36;;;;;;;50.63;23.00;;;;;;;;;;5080152;28;20031;-83
2022/03/12 10:18:02;;;;;;;38.50;18.42;;;;;;;;;;5080339;28;20027;-83
2022/03/12 10:20:28;;;;;;;33.42;15.52;;;;;;;;;;5097019;28;20019;-83
2022/03/12 10:22:54;;;;;;;29.95;14.60;;;;;;;;;;5115194;28;20084;-84
2022/03/12 10:25:19;;;;;;;43.65;20.70;;;;;;;;;;5097413;28;20020;-84
2022/03/12 10:27:45;;;;;;;37.03;16.95;;;;;;;;;;5080028;28;20506;-83
2022/03/12 10:30:11;;;;;;;36.65;17.42;;;;;;;;;;5096844;28;20360;-83
2022/03/12 10:32:45;;;;;;;35.28;17.88;;;;;;;;;;5090168;28;20030;-83
2022/03/12 10:35:12;;;;;;;34.28;15.88;;;;;;;;;;5096762;28;20042;-84
2022/03/12 10:37:37;;;;;;;41.17;16.77;;;;;;;;;;5079707;28;20036;-84
2022/03/12 10:40:14;;;;;;;45.33;16.42;;;;;;;;;;5080095;28;20452;-83
2022/03/12 10:42:47;;;;;;;33.50;17.60;;;;;;;;;;5080437;28;20028;-83
2022/03/12 10:45:15;;;;;;;48.70;21.63;;;;;;;;;;5096873;28;20024;-83
2022/03/12 10:47:47;;;;;;;40.28;17.85;;;;;;;;;;5079993;28;20032;-83
2022/03/12 10:50:20;;;;;;;40.05;19.08;;;;;;;;;;5080739;28;20024;-83
2022/03/12 10:52:50;;;;;;;38.08;18.02;;;;;;;;;;5080300;28;20024;-82
2022/03/12 10:55:26;;;;;;;31.48;17.25;;;;;;;;;;5086575;28;20549;-84
2022/03/12 10:58:04;;;;;;;40.28;16.48;;;;;;;;;;5096906;28;20521;-83
2022/03/12 11:00:32;;;;;;;32.63;15.50;;;;;;;;;;5096485;28;20505;-83
2022/03/12 11:03:02;;;;;;;35.92;15.73;;;;;;;;;;5096797;28;20035;-83
2022/03/12 11:05:28;;;;;;;32.38;16.08;;;;;;;;;;5079371;28;20032;-83
2022/03/12 11:08:07;;;;;;;42.40;17.30;;;;;;;;;;5079401;28;20036;-83
2022/03/12 11:10:36;;;;;;;39.85;17.25;;;;;;;;;;5096740;28;20027;-83
2022/03/12 11:13:03;;;;;;;36.28;18.70;;;;;;;;;;5080348;28;20046;-82
2022/03/12 11:15:42;;;;;;;38.28;16.95;;;;;;;;;;5124750;28;20381;-83
2022/03/12 11:18:08;;;;;;;34.85;16.02;;;;;;;;;;5099507;28;20410;-84
2022/03/12 11:20:36;;;;;;;34.80;17.20;;;;;;;;;;5096053;28;20038;-83
2022/03/12 11:23:12;;;;;;;44.35;21.02;;;;;;;;;;5099227;28;20115;-83
2022/03/12 11:26:05;;;;;;;38.63;19.20;;;;;;;;;;5100759;28;20051;-83
2022/03/12 11:28:32;;;;;;;37.38;18.25;;;;;;;;;;5085756;28;20031;-82
2022/03/12 11:31:01;;;;;;;34.40;16.35;;;;;;;;;;5100713;28;20020;-82
2022/03/12 11:33:38;;;;;;;37.97;17.00;;;;;;;;;;5101290;28;20034;-82
2022/03/12 11:36:09;;;;;;;33.28;15.80;;;;;;;;;;5110495;28;20076;-82
2022/03/12 11:38:56;;;;;;;37.50;15.73;;;;;;;;;;5122107;28;20433;-85
2022/03/12 11:41:24;;;;;;;34.65;14.00;;;;;;;;;;5084577;28;20135;-83
2022/03/12 11:43:49;;;;;;;32.13;14.10;;;;;;;;;;5083518;28;20118;-85
2022/03/12 11:46:16;;;;;;;30.45;13.20;;;;;;;;;;5100341;28;20087;-85
2022/03/12 11:48:41;;;;;;;34.08;14.45;;;;;;;;;;5100788;28;20031;-84
2022/03/12 11:51:44;;;;;;;33.15;14.07;;;;;;;;;;5118062;28;20024;-85
2022/03/12 11:54:09;;;;;;;33.67;14.00;;;;;;;;;;5099914;28;20406;-81
2022/03/12 11:56:35;;;;;;;28.60;13.88;;;;;;;;;;5100122;28;20027;-81
2022/03/12 11:59:01;;;;;;;35.42;14.82;;;;;;;;;;5124973;28;20080;-81
2022/03/12 12:01:26;;;;;;;34.92;15.65;;;;;;;;;;5101290;28;20034;-83
2022/03/12 12:03:53;;;;;;;41.80;17.90;;;;;;;;;;5083188;28;20034;-84
2022/03/12 12:06:19;;;;;;;35.08;14.05;;;;;;;;;;5117759;28;20509;-82
2022/03/12 12:08:45;;;;;;;39.78;17.23;;;;;;;;;;5099464;28;20133;-81
2022/03/12 12:11:11;;;;;;;35.75;15.85;;;;;;;;;;5082905;28;20027;-83
2022/03/12 12:13:37;;;;;;;40.67;16.08;;;;;;;;;;5099763;28;20462;-81
2022/03/12 12:16:04;;;;;;;32.85;15.40;;;;;;;;;;5127681;28;20087;-82
2022/03/12 12:18:30;;;;;;;36.67;15.48;;;;;;;;;;5132714;28;20035;-83
2022/03/12 12:20:55;;;;;;;32.50;14.43;;;;;;;;;;5123249;28;20373;-82
2022/03/12 12:23:21;;;;;;;33.22;15.30;;;;;;;;;;5099389;28;20578;-83
2022/03/12 12:25:47;;;;;;;71.22;25.25;;;;;;;;;;5099351;28;20034;-83
2022/03/12 12:28:24;;;;;;;46.28;17.10;;;;;;;;;;5082610;28;20498;-81
2022/03/12 12:30:50;;;;;;;35.90;15.27;;;;;;;;;;5099204;28;20429;-82
2022/03/12 12:33:19;;;;;;;40.83;16.48;;;;;;;;;;5098541;28;20052;-81
2022/03/12 12:35:46;;;;;;;44.17;17.48;;;;;;;;;;5117349;28;20035;-82
2022/03/12 12:38:12;;;;;;;35.05;13.32;;;;;;;;;;5099732;28;20020;-81
2022/03/12 12:41:04;;;;;;;34.33;14.43;;;;;;;;;;5094462;28;20016;-82
2022/03/12 12:43:42;;;;;;;41.45;16.45;;;;;;;;;;5095029;28;20426;-81
2022/03/12 12:46:12;;;;;;;40.83;15.70;;;;;;;;;;5083224;28;20030;-81
2022/03/12 12:48:48;;;;;;;45.80;16.97;;;;;;;;;;5098590;28;20345;-80
2022/03/12 12:51:22;;;;;;;38.53;14.88;;;;;;;;;;5081992;28;20164;-82
2022/03/12 12:53:48;;;;;;;36.88;15.75;;;;;;;;;;5116808;28;20026;-82
2022/03/12 12:56:21;;;;;;;35.70;15.63;;;;;;;;;;5098684;28;20032;-81
2022/03/12 12:58:53;;;;;;;35.30;15.32;;;;;;;;;;5098620;28;20522;-82
2022/03/12 13:01:20;;;;;;;39.50;16.00;;;;;;;;;;5119476;28;20027;-81
2022/03/12 13:03:50;;;;;;;34.55;14.57;;;;;;;;;;5104183;28;20021;-84
2022/03/12 13:06:38;;;;;;;39.08;14.27;;;;;;;;;;5107165;28;20035;-80
2022/03/12 13:09:11;;;;;;;34.05;14.10;;;;;;;;;;5112791;28;20032;-82
2022/03/12 13:11:47;;;;;;;37.15;14.50;;;;;;;;;;5114817;28;20126;-81
2022/03/12 13:14:16;;;;;;;35.15;13.27;;;;;;;;;;5129309;28;20067;-81
2022/03/12 13:17:00;;;;;;;31.40;11.55;;;;;;;;;;5102661;28;20082;-82
2022/03/12 13:19:29;;;;;;;31.85;12.38;;;;;;;;;;5082805;28;20028;-82
2022/03/12 13:22:03;;;;;;;35.60;13.13;;;;;;;;;;5116645;28;20365;-81
2022/03/12 13:24:44;;;;;;;33.05;13.63;;;;;;;;;;5111125;28;20063;-83
2022/03/12 13:27:29;;;;;;;33.72;12.10;;;;;;;;;;5098334;28;20019;-81
2022/03/12 13:30:09;;;;;;;36.53;14.00;;;;;;;;;;5081263;28;20027;-82
2022/03/12 13:32:39;;;;;;;40.42;16.05;;;;;;;;;;5098678;28;20027;-81
2022/03/12 13:35:04;;;;;;;51.67;21.00;;;;;;;;;;5098425;28;20027;-81
2022/03/12 13:37:30;;;;;;;43.67;15.90;;;;;;;;;;5097799;28;20039;-82
2022/03/12 13:40:07;;;;;;;48.42;15.65;;;;;;;;;;5081123;28;20674;-82
2022/03/12 13:42:32;;;;;;;39.20;16.08;;;;;;;;;;5081226;28;20031;-81
2022/03/12 13:44:57;;;;;;;45.05;16.02;;;;;;;;;;5082677;28;20080;-81
2022/03/12 13:47:24;;;;;;;45.17;16.50;;;;;;;;;;5089098;28;20448;-82
2022/03/12 13:49:51;;;;;;;41.50;16.65;;;;;;;;;;5081112;28;20031;-81
2022/03/12 13:52:17;;;;;;;42.05;16.45;;;;;;;;;;5081235;28;20027;-81
2022/03/12 13:54:43;;;;;;;41.80;17.05;;;;;;;;;;5115549;28;20055;-82
2022/03/12 13:57:08;;;;;;;41.25;17.60;;;;;;;;;;5097736;28;20514;-82
2022/03/12 13:59:34;;;;;;;45.67;17.33;;;;;;;;;;5080542;28;20115;-82
2022/03/12 14:02:01;;;;;;;30.33;11.90;;;;;;;;;;5080364;28;20122;-83
2022/03/12 14:04:28;;;;;;;36.42;13.18;;;;;;;;;;5097500;28;20370;-82
2022/03/12 14:06:54;;;;;;;36.72;15.48;;;;;;;;;;5080459;28;20108;-83
2022/03/12 14:09:21;;;;;;;36.22;14.18;;;;;;;;;;5083064;28;20115;-83
2022/03/12 14:11:48;;;;;;;51.55;17.52;;;;;;;;;;5098216;28;20055;-81
2022/03/12 14:14:16;;;;;;;79.05;30.17;;;;;;;;;;5080306;28;20065;-82
2022/03/12 14:16:47;;;;;;;59.83;21.88;;;;;;;;;;5115020;28;20028;-81
2022/03/12 14:19:16;;;;;;;;;;;;;;;;;;5098004;28;20028;-81